Central Sierra Snow Lab Weather observations

Data are for 10 minute period ending at time listed.
 Day   Time    Incoming  Reflected   Ave.   Ave.    Ave.    Vector  Max.    Ave.    Total    Snow   
  of    of      Solar     Solar      Air    Rel.    Wind    Wind    Wind   Baro.   Precip.   Depth  
Year   Day     Radiation Radiation   Temp.  Humid.  Speed   Dir.    Gust   Press.                   
2017   (PST)    Kw/m2     Kw/m2       F       %      mph     deg.    mph     mb.     in.      in.   
----------------------------------------------------------------------------------------------------
 144   13:40    0.921     999.000     62.9     28     4.4     233    11.5   788.40    8.97   48.50  
 144   13:50    0.908     999.000     63.3     30     4.1     237    12.2   788.30    8.98   48.00  
 144   14:00    0.894     999.000     62.9     29     6.3     236    19.3   788.20    8.97   48.40  
 144   14:10    0.869     999.000     62.5     30     5.0     230    12.4   788.10    8.97   47.90  
 144   14:20    0.857     999.000     62.3     31     4.9     208    14.6   788.00    8.97   48.30  
 144   14:30    0.829     999.000     62.5     31     5.0     222    14.5   787.90    8.98   52.30  
 144   14:40    0.809     999.000     62.3     31     4.3     220    13.5   787.80    8.98   51.30  
 144   14:50    0.785     999.000     62.9     31     4.6     233    12.6   787.70    8.97   48.00  
 144   15:00    0.762     999.000     62.0     32     4.7     226    15.0   787.60    8.97   47.90  
 144   15:10    0.731     999.000     61.7     33     4.9     217    13.8   787.50    8.97   47.90  
 144   15:20    0.651     999.000     60.9     33     4.8     219    15.1   787.40    8.98   48.20  
 144   15:30    0.687     999.000     61.5     31     4.5     216    13.6   787.30    8.97   47.60  
 144   15:40    0.661     999.000     61.5     32     3.8     234    12.5   787.30    8.97   47.60  
 144   15:50    0.603     999.000     61.5     30     4.2     225    10.5   787.20    8.97   47.70  
 144   16:00    0.596     999.000     61.3     31     4.5     224    14.7   787.10    8.97   47.90  
 144   16:10    0.548     999.000     60.8     32     4.1     219    11.1   787.00    8.97   47.80  
 144   16:20    0.340     999.000     60.4     30     3.7     224    10.6   787.10    8.97   62.40  
 144   16:30    0.288     999.000     59.6     31     4.2     208    10.8   787.00    8.97   63.30  
 144   16:40    0.332     999.000     59.0     32     3.2     203     7.2   786.90    8.97   48.10  
 144   16:50    0.439     999.000     58.9     32     3.2     211     9.3   786.70    8.97   48.10  
 144   17:00    0.347     999.000     59.1     33     3.2     215     8.6   786.70    8.97   47.40  
 144   17:10    0.353     999.000     58.3     32     3.5     216     8.2   786.60    8.97   56.40  
 144   17:20    0.335     999.000     58.3     34     3.2     231    10.2   786.40    8.97   50.20  
 144   17:30    0.323     999.000     58.5     36     4.1     242    11.1   786.40    8.97   47.20  
 144   17:40    0.297     999.000     57.9     39     3.7     233    14.9   786.40    8.97   46.70  
 144   17:50    0.253     999.000     57.6     40     3.8     222    11.2   786.30    8.97   46.70  
 144   18:00    0.199     999.000     56.9     38     3.8     242    10.8   786.20    8.97   46.70  
 144   18:10    0.087     999.000     56.2     40     3.3     229    12.3   786.30    8.97   47.00  
 144   18:20    0.124     999.000     55.5     41     3.4     230    11.1   786.30    8.97   47.20  
 144   18:30    0.038     999.000     54.7     42     2.5     178     8.2   786.30    8.97   47.30  
 144   18:40    0.015     999.000     53.1     44     2.7     208     8.6   786.30    8.97   47.20  
 144   18:50    0.013     999.000     52.1     48     2.2     202     7.0   786.20    8.98   47.20  
 144   19:00    0.012     999.000     51.1     51     1.8     186     6.5   786.10    8.97   47.10  
 144   19:10    0.008     999.000     50.0     54     2.1     220     5.3   786.00    8.97   47.10  
 144   19:20    0.003     999.000     49.5     56     1.3     231     4.2   786.00    8.97   47.30  
 144   19:30    0.002     999.000     49.2     57     1.8     227     7.3   786.10    8.97   47.40  
 144   19:40    0.001     999.000     49.0     57     2.3     264     7.0   786.10    8.97   47.40  
 144   19:50    0.000     999.000     48.9     57     1.8     192     5.2   786.20    8.97   47.30  
 144   20:00    0.000     999.000     47.9     58     1.2     184     4.5   786.20    8.97   47.40  
 144   20:10    0.000     999.000     47.8     56     1.8     218     6.0   786.30    8.98   47.50  
 144   20:20    0.000     999.000     47.3     55     1.0     172     2.5   786.20    8.99   47.30  
 144   20:30    0.000     999.000     46.6     57     1.7     205     6.5   786.30    8.97   47.60  
 144   20:40    0.000     999.000     46.6     59     1.2     285     4.5   786.20    8.96   47.30  
 144   20:50    0.000     999.000     47.1     56     3.9     285     9.9   786.20    8.98   47.50  
 144   21:00    0.000     999.000     47.3     54     1.7     232     4.7   786.20    8.97   47.60  
 144   21:10    0.000     999.000     46.3     56     1.8     187     4.0   786.20    8.98   47.70  
 144   21:20    0.000     999.000     45.4     58     0.8     165     2.2   786.20    8.98   47.70  
 144   21:30    0.000     999.000     44.8     59     0.9     232     3.6   786.10    8.98   47.50  
 144   21:40    0.000     999.000     45.4     57     2.1     300     5.2   786.10    8.97   47.50  
 144   21:50    0.000     999.000     46.2     55     3.0     307     9.1   786.10    8.97   47.50  
 144   22:00    0.000     999.000     45.9     55     1.2     281     4.3   786.10    8.98   47.50  
 144   22:10    0.000     999.000     45.1     57     0.5     305     2.6   786.00    8.98   47.50  
 144   22:20    0.000     999.000     44.0     60     0.5     322     2.4   786.00    8.98   47.50  
 144   22:30    0.000     999.000     43.3     61     1.4     333     4.0   786.00    8.97   47.50  
 144   22:40    0.000     999.000     43.3     61     1.3     324     4.3   786.00    8.97   47.50  
 144   22:50    0.000     999.000     42.2     64     1.9       5     4.9   785.90    8.98   47.50  
 144   23:00    0.000     999.000     41.8     65     1.8      22     3.0   785.80    8.98   47.50  
 144   23:10    0.000     999.000     42.0     63     1.6     358     3.7   785.60    8.97   47.40  
 144   23:20    0.000     999.000     42.4     61     0.5      87     2.2   785.50    8.98   47.40  
 144   23:30    0.000     999.000     42.1     61     0.9      69     2.6   785.40    8.98   47.40  
 144   23:40    0.000     999.000     41.7     62     1.2      79     3.3   785.40    8.98   47.40  
 144   23:50    0.000     999.000     42.1     60     0.9     160     3.1   785.30    8.98   47.50  
 145    0:00    0.000     999.000     42.4     59     0.9     125     3.6   785.20    8.98   47.40  
 145    0:10    0.000     999.000     41.6     60     1.3      96     3.4   785.10    8.98   47.40  
 145    0:20    0.000     999.000     41.7     59     1.0      52     4.2   785.00    8.97   47.50  
 145    0:30    0.000     999.000     42.1     58     1.0     159     3.9   784.90    8.98   47.40  
 145    0:40    0.000     999.000     42.2     57     1.2      99     2.4   784.80    8.98   47.50  
 145    0:50    0.000     999.000     41.5     59     1.7      62     3.4   784.80    8.98   47.40  
 145    1:00    0.000     999.000     40.4     63     2.1      44     3.8   784.80    8.98   47.40  
 145    1:10    0.000     999.000     40.1     64     2.1      49     3.3   784.80    8.97   47.40  
 145    1:20    0.000     999.000     39.2     67     3.2      27     4.7   784.80    8.98   47.30  
 145    1:30    0.000     999.000     38.5     69     3.8      26     4.8   784.70    8.98   47.30  
 145    1:40    0.000     999.000     37.9     71     3.6      27     5.0   784.70    8.98   47.40  
 145    1:50    0.000     999.000     37.3     73     3.7      25     5.4   784.60    8.98   47.50  
 145    2:00    0.000     999.000     36.8     74     3.8      26     4.7   784.60    8.98   47.40  
 145    2:10    0.000     999.000     36.4     75     3.5      26     5.1   784.50    8.98   47.50  
 145    2:20    0.000     999.000     36.1     76     3.6      26     5.5   784.50    8.98   47.50  
 145    2:30    0.000     999.000     35.9     77     3.8      26     5.2   784.50    8.98   47.50  
 145    2:40    0.000     999.000     35.6     78     3.9      26     5.0   784.50    8.98   47.50  
 145    2:50    0.000     999.000     35.4     79     3.8      24     5.7   784.50    8.98   47.50  
 145    3:00    0.000     999.000     35.0     80     3.1      30     4.9   784.40    8.98   47.50  
 145    3:10    0.000     999.000     34.9     80     3.8      28     5.0   784.40    8.98   47.40  
 145    3:20    0.000     999.000     34.8     80     3.2      31     5.7   784.40    8.98   47.30  
 145    3:30    0.000     999.000     35.0     80     3.3      34     5.8   784.30    8.98   47.40  
 145    3:40    0.000     999.000     34.9     79     3.8      26     5.3   784.30    8.98   47.30  
 145    3:50    0.000     999.000     34.6     79     4.1      26     5.6   784.30    8.98   47.30  
 145    4:00    0.000     999.000     34.5     78     3.7      32     5.4   784.30    8.98   47.30  
 145    4:10    0.000     999.000     34.7     77     3.5      26     6.1   784.30    8.99   47.30  
 145    4:20    0.000     999.000     34.5     76     3.4      28     5.4   784.30    8.97   47.30  
 145    4:30    0.000     999.000     34.2     78     3.8      27     5.5   784.30    8.99   47.20  
 145    4:40    0.001     999.000     34.1     78     4.1      24     5.4   784.30    8.98   47.30  
 145    4:50    0.003     999.000     33.9     79     4.8      26     5.6   784.40    8.99   47.20  
 145    5:00    0.005     999.000     33.9     78     4.8      26     6.1   784.40    8.98   47.20  
 145    5:10    0.007     999.000     33.8     79     4.7      27     5.7   784.40    8.98   47.20  
 145    5:20    0.009     999.000     34.0     78     3.6      29     6.1   784.40    8.98   47.20  
 145    5:30    0.011     999.000     34.2     78     3.6      31     5.4   784.40    8.98   47.20  
 145    5:40    0.012     999.000     34.7     76     3.4      31     4.9   784.40    8.99   47.30  
 145    5:50    0.015     999.000     35.2     75     3.4      28     4.7   784.40    8.98   47.20  
 145    6:00    0.017     999.000     35.8     74     3.6      35     5.3   784.30    8.99   47.30  
 145    6:10    0.021     999.000     36.9     72     3.0      37     4.4   784.40    8.99   47.30  
 145    6:20    0.076     999.000     38.0     70     2.9      30     4.3   784.50    8.98   47.30  
 145    6:30    0.227     999.000     40.2     66     2.3      39     4.2   784.50    8.98   47.30  
 145    6:40    0.274     999.000     41.8     62     1.5      53     2.5   784.50    8.98   47.10  
 145    6:50    0.301     999.000     45.5     49     1.7     196     5.3   784.60    8.98   47.10  
 145    7:00    0.278     999.000     48.8     42     1.8     199     4.4   784.60    8.98   47.20  
 145    7:10    0.387     999.000     49.8     40     2.3     221     6.8   784.60    8.98   47.20  
 145    7:20    0.421     999.000     49.4     42     2.7     198     8.9   784.50    8.97   47.20  
 145    7:30    0.452     999.000     49.9     42     1.6     209     4.5   784.50    8.96   47.40  
 145    7:40    0.485     999.000     50.9     39     2.6     181     7.0   784.50    8.98   47.40  
 145    7:50    0.517     999.000     51.3     39     2.2     182     5.0   784.60    8.97   46.20  
 145    8:00    0.549     999.000     51.7     38     2.0     219     6.7   784.60    8.97   46.50  
 145    8:10    0.581     999.000     52.2     38     2.0     230     8.1   784.60    8.97   46.40  
 145    8:20    0.610     999.000     52.5     35     2.7     230     7.2   784.70    8.98   46.30  
 145    8:30    0.641     999.000     52.4     34     2.4     229     7.2   784.70    8.97   46.10  
 145    8:40    0.670     999.000     52.6     35     2.5     226     7.9   784.70    8.97   46.50  
 145    8:50    0.696     999.000     53.0     34     3.4     220     9.1   784.70    8.97   46.50  
 145    9:00    0.723     999.000     53.9     33     2.7     215     9.4   784.70    8.97   46.40  
 145    9:10    0.750     999.000     54.0     33     3.0     214     8.2   784.70    8.97   46.60  
 145    9:20    0.774     999.000     54.0     33     2.9     225     8.2   784.70    8.97   46.30  
 145    9:30    0.799     999.000     54.3     33     3.1     204     8.6   784.70    8.96   46.20  
 145    9:40    0.821     999.000     54.3     31     3.5     198     7.5   784.70    8.98   46.20  
 145    9:50    0.848     999.000     54.6     29     3.9     216    11.6   784.70    8.98   46.20  
 145   10:00    0.889     999.000     55.0     27     3.6     206     9.6   784.80    8.96   46.50  
 145   10:10    0.882     999.000     55.4     27     3.2     213     8.5   784.90    8.97   46.30  
 145   10:20    0.898     999.000     55.8     27     3.2     217     8.9   784.90    8.97   46.20  
 145   10:30    0.912     999.000     55.4     28     3.8     213    12.7   784.90    8.96   46.10  
 145   10:40    0.922     999.000     55.7     29     3.2     210    11.6   785.00    8.97   45.80  
 145   10:50    0.933     999.000     56.5     29     2.8     221     6.3   784.90    8.98   45.70  
 145   11:00    0.941     999.000     56.7     29     3.6     221    12.3   784.90    8.98   45.90  
 145   11:10    0.950     999.000     57.1     30     2.9     211     5.4   784.90    8.98   45.90  
 145   11:20    0.957     999.000     56.9     31     3.2     221     8.5   784.90    8.97   46.10  
 145   11:30    0.964     999.000     57.0     31     3.5     216    11.7   784.90    8.97   45.80  
 145   11:40    0.967     999.000     57.6     32     3.2     218     8.5   785.00    8.98   45.80  
 145   11:50    0.971     999.000     58.1     31     3.4     220    11.1   785.00    8.98   45.70  
 145   12:00    0.974     999.000     58.0     30     2.9     220     8.6   785.00    8.97   45.50  
 145   12:10    0.970     999.000     57.1     34     4.9     230    13.5   785.00    8.97   46.00  
 145   12:20    0.968     999.000     56.9     35     4.3     247    12.8   784.90    8.97   45.80  
 145   12:30    0.968     999.000     57.2     34     4.2     225    13.7   784.90    8.97   45.80  
 145   12:40    0.966     999.000     57.4     34     4.2     224    10.5   785.00    8.98   45.80  
 145   12:50    0.962     999.000     56.6     36     4.1     214    11.4   785.00    8.97   45.70  
 145   13:00    0.954     999.000     57.2     36     4.0     218     9.9   784.90    8.98   45.80  
 145   13:10    0.949     999.000     57.0     35     4.0     237    12.0   784.90    8.97   46.00  
 145   13:20    0.941     999.000     57.7     35     3.0     246     8.8   784.90    8.97   45.90  
 145   13:30    0.931     999.000     57.1     37     3.9     235    13.3   784.90    8.98   45.80  

Return to Central Sierra Snow Lab graphs page.


Western Regional Climate Center,wrcc@dri.edu